CDT,Max TemperatureF,Mean TemperatureF,Min TemperatureF,Max Dew PointF,MeanDew PointF,Min DewpointF,Max Humidity, Mean Humidity, Min Humidity, Max Sea Level PressureIn, Mean Sea Level PressureIn, Min Sea Level PressureIn, Max VisibilityMiles, Mean VisibilityMiles, Min VisibilityMiles, Max Wind SpeedMPH, Mean Wind SpeedMPH, Max Gust SpeedMPH,PrecipitationIn, CloudCover, Events, WindDirDegrees
2011-10-1,64,48,32,37,34,30,100,63,28,30.36,30.29,30.21,10,10,10,9,5,,0.00,0,,145
2011-10-2,80,63,46,39,37,34,66,46,20,30.24,30.19,30.12,10,10,3,13,8,17,0.00,0,,172
2011-10-3,82,64,46,43,39,36,87,45,19,30.22,30.18,30.15,10,10,5,12,5,17,0.00,0,,154
2011-10-4,84,68,51,39,38,36,62,37,19,30.19,30.14,30.06,10,10,10,17,10,23,0.00,0,,150
2011-10-5,87,74,62,46,44,39,52,36,21,30.12,30.08,30.03,10,10,10,16,12,23,0.00,0,,163
2011-10-6,82,70,57,48,45,39,67,45,21,30.11,30.06,30.00,10,10,10,21,12,31,0.00,0,,142
2011-10-7,84,75,66,59,55,50,64,50,39,30.02,29.96,29.88,10,10,7,29,19,44,0.00,2,,165
2011-10-8,86,76,66,63,55,52,65,51,37,30.12,30.05,29.98,10,10,10,20,14,25,0.00,3,,174
2011-10-9,82,72,62,55,52,48,68,53,30,30.23,30.17,30.13,10,10,10,16,10,23,0.00,1,,154
2011-10-10,75,65,55,59,51,46,94,62,36,30.13,30.01,29.93,10,10,10,17,10,25,0.00,2,Rain,152
2011-10-11,75,64,53,59,54,52,100,75,44,29.93,29.89,29.81,10,8,4,15,9,21,0.00,1,,161
2011-10-12,64,60,57,57,57,54,100,85,72,29.80,29.73,29.67,10,9,3,14,8,21,0.00,5,Rain-Thunderstorm,137
2011-10-13,60,55,50,57,50,41,100,83,52,29.68,29.65,29.63,10,7,0,21,8,28,0.00,5,Fog,287
2011-10-14,57,52,46,46,43,37,93,74,48,29.81,29.72,29.64,10,10,10,24,13,33,0.00,5,Rain,287
2011-10-15,60,50,39,45,39,36,93,68,39,29.91,29.86,29.82,10,10,10,18,11,26,0.00,2,Rain,271
2011-10-16,59,50,42,45,38,28,93,67,33,29.90,29.87,29.82,10,10,10,26,9,37,0.00,2,,272
2011-10-17,57,46,35,36,31,27,87,57,31,29.90,29.87,29.84,10,10,10,24,11,30,0.00,0,,273
2011-10-18,46,40,33,36,33,30,87,71,61,30.02,29.95,29.86,10,10,10,20,9,25,0.00,6,,314
2011-10-19,46,42,39,36,34,30,87,73,61,30.07,30.03,30.00,10,10,10,17,11,21,0.00,8,,354
2011-10-20,53,42,30,36,30,27,93,68,35,29.98,29.94,29.90,10,10,7,22,10,29,0.00,0,,330
2011-10-21,62,43,24,37,31,23,93,66,34,30.06,30.01,29.96,10,10,10,13,4,18,0.00,0,,206
2011-10-22,60,46,32,41,34,30,100,66,31,30.12,30.06,30.00,10,9,0,9,3,,0.00,0,,332
2011-10-23,66,52,37,48,41,32,100,68,43,29.96,29.87,29.77,10,10,7,15,9,21,0.00,3,Rain,207
2011-10-24,66,50,33,45,39,34,100,73,35,30.04,29.99,29.95,10,9,1,14,4,17,0.00,1,,212
2011-10-25,55,50,44,45,42,36,93,71,47,29.93,29.82,29.77,10,10,5,21,13,28,0.00,3,,58
2011-10-26,50,44,39,37,37,34,93,77,58,30.08,30.04,29.98,10,10,10,10,6,,0.00,5,,343
2011-10-27,51,40,30,36,32,25,100,75,38,30.08,30.04,30.02,10,7,0,15,2,,0.00,4,Fog,264
2011-10-28,55,44,33,34,26,21,75,53,28,30.08,30.03,30.01,10,10,4,18,10,24,0.00,2,,237
2011-10-29,53,38,23,30,22,18,86,54,24,30.07,30.01,29.93,10,10,10,13,3,,0.00,0,,177
2011-10-30,50,46,42,39,31,23,87,57,35,29.91,29.82,29.76,10,10,5,21,13,30,0.00,6,Rain,214
2011-10-31,53,40,28,37,33,28,100,73,41,30.02,29.98,29.94,10,9,4,15,7,21,0.00,2,,229